This is the latest recevied weather packets stored in our database for station/object OE-11061. If no packets are shown the sender has not sent any weather packets the latest 10 day(s).
| Time | Temp. | Humidity | Pressure | Rain* | Wind** | Luminosity | Snow |
|---|---|---|---|---|---|---|---|
| 1787660131 | 18.33° C | 75% | 1013.6 hPa | 0 mm | - | 202 W/m² | - |
| 1787659520 | 18.33° C | 75% | 1013.6 hPa | 0 mm | - | 187 W/m² | - |
| 1787658920 | 18.33° C | 76% | 1013.6 hPa | 0 mm | - | 187 W/m² | - |
| 1787658093 | 18.33° C | 76% | 1013.6 hPa | 0 mm | - | 232 W/m² | - |
| 1787657719 | 18.89° C | 74% | 1013.4 hPa | 0 mm | - | 299 W/m² | - |
| 1787657119 | 18.89° C | 73% | 1013.2 hPa | 0 mm | - | 366 W/m² | - |
| 1787654492 | 19.44° C | 68% | 1012.7 hPa | 0 mm | - | 336 W/m² | - |
| 1787652318 | 19.44° C | 66% | 1012.2 hPa | 0 mm | - | 426 W/m² | - |
| 1787651718 | 19.44° C | 68% | 1012.2 hPa | 0 mm | - | 418 W/m² | - |
| 1787650892 | 19.44° C | 68% | 1012.2 hPa | 0 mm | - | 381 W/m² | - |
| 1787650519 | 18.89° C | 69% | 1012.1 hPa | 0 mm | - | 306 W/m² | - |
| 1787649919 | 18.33° C | 70% | 1012 hPa | 0 mm | - | 291 W/m² | - |
| 1787649091 | 18.33° C | 69% | 1011.9 hPa | 0 mm | - | 276 W/m² | - |
| 1787648719 | 18.33° C | 69% | 1011.8 hPa | 0 mm | - | 284 W/m² | - |
| 1787648119 | 17.78° C | 72% | 1011.7 hPa | 0 mm | - | 187 W/m² | - |
| 1787647291 | 17.22° C | 72% | 1011.7 hPa | 0 mm | - | 127 W/m² | - |
| 1787646919 | 17.78° C | 74% | 1011.4 hPa | 0 mm | - | 127 W/m² | - |
| 1787646319 | 17.78° C | 72% | 1011.3 hPa | 0 mm | - | 164 W/m² | - |
| 1787645491 | 17.78° C | 73% | 1011.1 hPa | 0 mm | - | 209 W/m² | - |
| 1787645119 | 17.78° C | 71% | 1010.9 hPa | 0 mm | - | 202 W/m² | - |
| 1787644519 | 17.22° C | 74% | 1011.1 hPa | 0 mm | - | 194 W/m² | - |
| 1787643693 | 17.22° C | 77% | 1010.9 hPa | 0 mm | - | 179 W/m² | - |
| 1787643320 | 17.22° C | 76% | 1010.4 hPa | 0 mm | - | 157 W/m² | - |
| 1787642720 | 17.22° C | 66% | 1009.8 hPa | 0 mm | - | 149 W/m² | - |
| 1787641893 | 17.22° C | 68% | 1009.6 hPa | 0 mm | - | 149 W/m² | - |
* Rain latest hour (hover to see other rain measurements)
** Current wind speed in m/s (hover to see current wind gust speed)